sensor_id;sensor_type;location;lat;lon;timestamp;P1;durP1;ratioP1;P2;durP2;ratioP2
28844;SDS011;15976;47.938;7.758;2023-05-24T00:02:24;19.35;;;9.75;;
28844;SDS011;15976;47.938;7.758;2023-05-24T00:04:52;14.40;;;8.80;;
28844;SDS011;15976;47.938;7.758;2023-05-24T00:07:19;14.40;;;8.77;;
28844;SDS011;15976;47.938;7.758;2023-05-24T00:09:46;12.80;;;8.60;;
28844;SDS011;15976;47.938;7.758;2023-05-24T00:12:14;14.32;;;8.77;;
28844;SDS011;15976;47.938;7.758;2023-05-24T00:14:41;12.15;;;8.48;;
28844;SDS011;15976;47.938;7.758;2023-05-24T00:17:08;14.05;;;8.70;;
28844;SDS011;15976;47.938;7.758;2023-05-24T00:19:35;11.25;;;8.20;;
28844;SDS011;15976;47.938;7.758;2023-05-24T00:22:03;12.45;;;8.73;;
28844;SDS011;15976;47.938;7.758;2023-05-24T00:24:30;14.13;;;8.20;;
28844;SDS011;15976;47.938;7.758;2023-05-24T00:26:57;13.02;;;8.13;;
28844;SDS011;15976;47.938;7.758;2023-05-24T00:29:25;12.93;;;8.30;;
28844;SDS011;15976;47.938;7.758;2023-05-24T00:31:52;13.40;;;8.45;;
28844;SDS011;15976;47.938;7.758;2023-05-24T00:34:19;11.32;;;8.02;;
28844;SDS011;15976;47.938;7.758;2023-05-24T00:36:46;13.20;;;8.45;;
28844;SDS011;15976;47.938;7.758;2023-05-24T00:39:14;12.23;;;8.68;;
28844;SDS011;15976;47.938;7.758;2023-05-24T00:41:41;15.00;;;8.48;;
28844;SDS011;15976;47.938;7.758;2023-05-24T00:44:08;14.40;;;8.77;;
28844;SDS011;15976;47.938;7.758;2023-05-24T00:46:36;15.15;;;8.77;;
28844;SDS011;15976;47.938;7.758;2023-05-24T00:49:04;13.02;;;7.97;;
28844;SDS011;15976;47.938;7.758;2023-05-24T00:51:31;13.50;;;8.25;;
28844;SDS011;15976;47.938;7.758;2023-05-24T00:53:59;14.60;;;8.38;;
28844;SDS011;15976;47.938;7.758;2023-05-24T00:56:27;12.70;;;7.70;;
28844;SDS011;15976;47.938;7.758;2023-05-24T00:58:54;12.15;;;8.15;;
28844;SDS011;15976;47.938;7.758;2023-05-24T01:01:22;12.88;;;7.28;;
28844;SDS011;15976;47.938;7.758;2023-05-24T01:03:56;11.32;;;8.07;;
28844;SDS011;15976;47.938;7.758;2023-05-24T01:06:26;11.85;;;7.88;;
28844;SDS011;15976;47.938;7.758;2023-05-24T01:11:58;11.82;;;8.10;;
28844;SDS011;15976;47.938;7.758;2023-05-24T01:17:07;11.93;;;7.30;;
28844;SDS011;15976;47.938;7.758;2023-05-24T01:19:50;10.93;;;7.90;;
28844;SDS011;15976;47.938;7.758;2023-05-24T01:22:48;12.40;;;7.82;;
28844;SDS011;15976;47.938;7.758;2023-05-24T01:28:07;12.73;;;7.22;;
28844;SDS011;15976;47.938;7.758;2023-05-24T01:30:36;14.20;;;7.57;;
28844;SDS011;15976;47.938;7.758;2023-05-24T01:33:08;10.57;;;7.22;;
28844;SDS011;15976;47.938;7.758;2023-05-24T01:35:35;13.80;;;7.50;;
28844;SDS011;15976;47.938;7.758;2023-05-24T01:38:07;10.95;;;7.32;;
28844;SDS011;15976;47.938;7.758;2023-05-24T01:40:36;13.60;;;7.57;;
28844;SDS011;15976;47.938;7.758;2023-05-24T01:45:39;11.95;;;7.20;;
28844;SDS011;15976;47.938;7.758;2023-05-24T01:51:00;12.43;;;7.10;;
28844;SDS011;15976;47.938;7.758;2023-05-24T01:53:34;13.75;;;6.88;;
28844;SDS011;15976;47.938;7.758;2023-05-24T01:56:08;10.30;;;6.97;;
28844;SDS011;15976;47.938;7.758;2023-05-24T01:58:36;14.23;;;7.70;;
28844;SDS011;15976;47.938;7.758;2023-05-24T02:01:07;11.13;;;6.78;;
28844;SDS011;15976;47.938;7.758;2023-05-24T02:03:35;10.48;;;7.05;;
28844;SDS011;15976;47.938;7.758;2023-05-24T02:06:03;10.68;;;6.93;;
28844;SDS011;15976;47.938;7.758;2023-05-24T02:08:31;11.75;;;6.97;;
28844;SDS011;15976;47.938;7.758;2023-05-24T02:10:58;12.30;;;7.13;;
28844;SDS011;15976;47.938;7.758;2023-05-24T02:13:25;10.40;;;6.75;;
28844;SDS011;15976;47.938;7.758;2023-05-24T02:15:52;10.68;;;7.47;;
28844;SDS011;15976;47.938;7.758;2023-05-24T02:18:20;9.82;;;7.47;;
28844;SDS011;15976;47.938;7.758;2023-05-24T02:20:48;12.80;;;7.28;;
28844;SDS011;15976;47.938;7.758;2023-05-24T02:23:15;9.63;;;6.82;;
28844;SDS011;15976;47.938;7.758;2023-05-24T02:25:42;12.02;;;6.65;;
28844;SDS011;15976;47.938;7.758;2023-05-24T02:28:09;10.65;;;6.40;;
28844;SDS011;15976;47.938;7.758;2023-05-24T02:30:36;13.48;;;7.38;;
28844;SDS011;15976;47.938;7.758;2023-05-24T02:33:06;10.82;;;7.00;;
28844;SDS011;15976;47.938;7.758;2023-05-24T02:35:34;13.40;;;7.15;;
28844;SDS011;15976;47.938;7.758;2023-05-24T02:38:01;13.02;;;6.68;;
28844;SDS011;15976;47.938;7.758;2023-05-24T02:40:32;11.75;;;7.15;;
28844;SDS011;15976;47.938;7.758;2023-05-24T02:43:00;13.38;;;7.20;;
28844;SDS011;15976;47.938;7.758;2023-05-24T02:45:27;12.93;;;7.18;;
28844;SDS011;15976;47.938;7.758;2023-05-24T02:47:54;10.27;;;6.57;;
28844;SDS011;15976;47.938;7.758;2023-05-24T02:50:21;13.15;;;7.57;;
28844;SDS011;15976;47.938;7.758;2023-05-24T02:52:48;15.35;;;7.57;;
28844;SDS011;15976;47.938;7.758;2023-05-24T02:55:17;9.82;;;6.70;;
28844;SDS011;15976;47.938;7.758;2023-05-24T02:57:44;11.45;;;6.57;;
28844;SDS011;15976;47.938;7.758;2023-05-24T03:00:14;13.48;;;7.32;;
28844;SDS011;15976;47.938;7.758;2023-05-24T03:02:43;10.90;;;6.38;;
28844;SDS011;15976;47.938;7.758;2023-05-24T03:05:10;10.27;;;6.72;;
28844;SDS011;15976;47.938;7.758;2023-05-24T03:07:37;11.50;;;7.05;;
28844;SDS011;15976;47.938;7.758;2023-05-24T03:10:05;10.90;;;7.03;;
28844;SDS011;15976;47.938;7.758;2023-05-24T03:12:33;18.80;;;7.55;;
28844;SDS011;15976;47.938;7.758;2023-05-24T03:15:00;14.07;;;6.93;;
28844;SDS011;15976;47.938;7.758;2023-05-24T03:17:29;13.50;;;6.78;;
28844;SDS011;15976;47.938;7.758;2023-05-24T03:19:56;11.75;;;6.90;;
28844;SDS011;15976;47.938;7.758;2023-05-24T03:22:23;11.50;;;6.95;;
28844;SDS011;15976;47.938;7.758;2023-05-24T03:24:51;9.57;;;6.55;;
28844;SDS011;15976;47.938;7.758;2023-05-24T03:27:18;13.18;;;6.05;;
28844;SDS011;15976;47.938;7.758;2023-05-24T03:29:46;12.98;;;6.53;;
28844;SDS011;15976;47.938;7.758;2023-05-24T03:32:14;10.80;;;6.40;;
28844;SDS011;15976;47.938;7.758;2023-05-24T03:34:41;10.85;;;6.07;;
28844;SDS011;15976;47.938;7.758;2023-05-24T03:37:09;8.73;;;5.70;;
28844;SDS011;15976;47.938;7.758;2023-05-24T03:39:37;10.18;;;6.45;;
28844;SDS011;15976;47.938;7.758;2023-05-24T03:42:19;9.77;;;6.10;;
28844;SDS011;15976;47.938;7.758;2023-05-24T03:44:46;10.13;;;5.88;;
28844;SDS011;15976;47.938;7.758;2023-05-24T03:47:13;11.88;;;5.80;;
28844;SDS011;15976;47.938;7.758;2023-05-24T03:49:40;10.45;;;6.50;;
28844;SDS011;15976;47.938;7.758;2023-05-24T03:52:07;10.32;;;5.90;;
28844;SDS011;15976;47.938;7.758;2023-05-24T03:54:34;9.40;;;5.85;;
28844;SDS011;15976;47.938;7.758;2023-05-24T03:57:01;10.85;;;5.85;;
28844;SDS011;15976;47.938;7.758;2023-05-24T03:59:29;14.52;;;5.53;;
28844;SDS011;15976;47.938;7.758;2023-05-24T04:01:56;10.43;;;5.78;;
28844;SDS011;15976;47.938;7.758;2023-05-24T04:04:23;11.65;;;5.72;;
28844;SDS011;15976;47.938;7.758;2023-05-24T04:06:51;11.80;;;5.90;;
28844;SDS011;15976;47.938;7.758;2023-05-24T04:09:19;9.95;;;5.55;;
28844;SDS011;15976;47.938;7.758;2023-05-24T04:11:48;10.95;;;5.68;;
28844;SDS011;15976;47.938;7.758;2023-05-24T04:14:18;12.77;;;5.80;;
28844;SDS011;15976;47.938;7.758;2023-05-24T04:16:45;12.65;;;6.25;;
28844;SDS011;15976;47.938;7.758;2023-05-24T04:19:12;15.95;;;6.72;;
28844;SDS011;15976;47.938;7.758;2023-05-24T04:21:39;12.18;;;5.80;;
28844;SDS011;15976;47.938;7.758;2023-05-24T04:24:06;10.68;;;5.82;;
28844;SDS011;15976;47.938;7.758;2023-05-24T04:26:34;13.63;;;5.53;;
28844;SDS011;15976;47.938;7.758;2023-05-24T04:29:03;10.40;;;5.93;;
28844;SDS011;15976;47.938;7.758;2023-05-24T04:31:30;11.95;;;6.10;;
28844;SDS011;15976;47.938;7.758;2023-05-24T04:33:59;13.02;;;5.82;;
28844;SDS011;15976;47.938;7.758;2023-05-24T04:36:28;10.13;;;5.32;;
28844;SDS011;15976;47.938;7.758;2023-05-24T04:38:56;12.15;;;6.18;;
28844;SDS011;15976;47.938;7.758;2023-05-24T04:41:28;9.77;;;5.80;;
28844;SDS011;15976;47.938;7.758;2023-05-24T04:43:57;12.43;;;6.10;;
28844;SDS011;15976;47.938;7.758;2023-05-24T04:46:27;13.48;;;6.10;;
28844;SDS011;15976;47.938;7.758;2023-05-24T04:48:54;12.90;;;5.82;;
28844;SDS011;15976;47.938;7.758;2023-05-24T04:51:21;12.13;;;5.75;;
28844;SDS011;15976;47.938;7.758;2023-05-24T04:53:49;8.98;;;4.68;;
28844;SDS011;15976;47.938;7.758;2023-05-24T04:56:16;12.48;;;5.78;;
28844;SDS011;15976;47.938;7.758;2023-05-24T04:58:43;9.70;;;5.70;;
28844;SDS011;15976;47.938;7.758;2023-05-24T05:01:10;10.90;;;5.72;;
28844;SDS011;15976;47.938;7.758;2023-05-24T05:03:37;12.18;;;5.70;;
28844;SDS011;15976;47.938;7.758;2023-05-24T05:06:07;13.07;;;5.72;;
28844;SDS011;15976;47.938;7.758;2023-05-24T05:08:34;14.80;;;5.63;;
28844;SDS011;15976;47.938;7.758;2023-05-24T05:11:01;11.98;;;5.35;;
28844;SDS011;15976;47.938;7.758;2023-05-24T05:13:29;10.88;;;5.53;;
28844;SDS011;15976;47.938;7.758;2023-05-24T05:15:55;8.77;;;5.72;;
28844;SDS011;15976;47.938;7.758;2023-05-24T05:18:23;11.90;;;6.00;;
28844;SDS011;15976;47.938;7.758;2023-05-24T05:20:50;13.63;;;6.10;;
28844;SDS011;15976;47.938;7.758;2023-05-24T05:23:18;10.77;;;6.03;;
28844;SDS011;15976;47.938;7.758;2023-05-24T05:25:45;10.73;;;5.68;;
28844;SDS011;15976;47.938;7.758;2023-05-24T05:28:12;11.80;;;5.85;;
28844;SDS011;15976;47.938;7.758;2023-05-24T05:30:39;10.02;;;5.22;;
28844;SDS011;15976;47.938;7.758;2023-05-24T05:33:06;9.43;;;5.57;;
28844;SDS011;15976;47.938;7.758;2023-05-24T05:35:33;13.45;;;5.28;;
28844;SDS011;15976;47.938;7.758;2023-05-24T05:38:00;10.50;;;5.60;;
28844;SDS011;15976;47.938;7.758;2023-05-24T05:40:28;12.35;;;6.40;;
28844;SDS011;15976;47.938;7.758;2023-05-24T05:42:55;12.48;;;5.70;;
28844;SDS011;15976;47.938;7.758;2023-05-24T05:45:23;9.32;;;5.35;;
28844;SDS011;15976;47.938;7.758;2023-05-24T05:47:50;10.25;;;5.50;;
28844;SDS011;15976;47.938;7.758;2023-05-24T05:50:17;12.73;;;5.53;;
28844;SDS011;15976;47.938;7.758;2023-05-24T05:52:44;13.73;;;5.88;;
28844;SDS011;15976;47.938;7.758;2023-05-24T05:55:11;11.15;;;5.57;;
28844;SDS011;15976;47.938;7.758;2023-05-24T05:57:38;15.00;;;5.78;;
28844;SDS011;15976;47.938;7.758;2023-05-24T06:00:05;9.25;;;5.13;;
28844;SDS011;15976;47.938;7.758;2023-05-24T06:02:37;9.73;;;5.47;;
28844;SDS011;15976;47.938;7.758;2023-05-24T06:05:04;13.43;;;6.35;;
28844;SDS011;15976;47.938;7.758;2023-05-24T06:07:31;17.10;;;5.72;;
28844;SDS011;15976;47.938;7.758;2023-05-24T06:09:59;13.18;;;5.93;;
28844;SDS011;15976;47.938;7.758;2023-05-24T06:12:26;13.50;;;6.43;;
28844;SDS011;15976;47.938;7.758;2023-05-24T06:14:53;13.23;;;5.60;;
28844;SDS011;15976;47.938;7.758;2023-05-24T06:17:23;12.95;;;5.50;;
28844;SDS011;15976;47.938;7.758;2023-05-24T06:19:50;15.60;;;6.05;;
28844;SDS011;15976;47.938;7.758;2023-05-24T06:22:19;12.45;;;5.65;;
28844;SDS011;15976;47.938;7.758;2023-05-24T06:24:47;13.90;;;5.53;;
28844;SDS011;15976;47.938;7.758;2023-05-24T06:27:14;15.50;;;6.05;;
28844;SDS011;15976;47.938;7.758;2023-05-24T06:29:41;16.30;;;6.20;;
28844;SDS011;15976;47.938;7.758;2023-05-24T06:32:09;12.32;;;5.78;;
28844;SDS011;15976;47.938;7.758;2023-05-24T06:34:36;13.05;;;5.38;;
28844;SDS011;15976;47.938;7.758;2023-05-24T06:37:03;13.48;;;6.15;;
28844;SDS011;15976;47.938;7.758;2023-05-24T06:39:31;14.30;;;6.35;;
28844;SDS011;15976;47.938;7.758;2023-05-24T06:41:58;37.30;;;6.32;;
28844;SDS011;15976;47.938;7.758;2023-05-24T06:44:26;12.80;;;6.03;;
28844;SDS011;15976;47.938;7.758;2023-05-24T06:47:00;14.77;;;6.13;;
28844;SDS011;15976;47.938;7.758;2023-05-24T06:49:27;15.15;;;6.00;;
28844;SDS011;15976;47.938;7.758;2023-05-24T06:51:55;11.95;;;5.75;;
28844;SDS011;15976;47.938;7.758;2023-05-24T06:54:22;11.88;;;6.03;;
28844;SDS011;15976;47.938;7.758;2023-05-24T06:56:49;12.05;;;5.25;;
28844;SDS011;15976;47.938;7.758;2023-05-24T06:59:16;17.13;;;5.65;;
28844;SDS011;15976;47.938;7.758;2023-05-24T07:01:43;14.48;;;5.80;;
28844;SDS011;15976;47.938;7.758;2023-05-24T07:04:10;12.35;;;5.40;;
28844;SDS011;15976;47.938;7.758;2023-05-24T07:06:37;12.30;;;5.65;;
28844;SDS011;15976;47.938;7.758;2023-05-24T07:09:04;15.23;;;5.85;;
28844;SDS011;15976;47.938;7.758;2023-05-24T07:11:32;14.40;;;5.50;;
28844;SDS011;15976;47.938;7.758;2023-05-24T07:13:59;11.15;;;5.47;;
28844;SDS011;15976;47.938;7.758;2023-05-24T07:16:26;11.23;;;5.78;;
28844;SDS011;15976;47.938;7.758;2023-05-24T07:18:53;9.32;;;5.40;;
28844;SDS011;15976;47.938;7.758;2023-05-24T07:21:21;15.50;;;5.82;;
28844;SDS011;15976;47.938;7.758;2023-05-24T07:23:49;12.20;;;5.38;;
28844;SDS011;15976;47.938;7.758;2023-05-24T07:26:16;11.75;;;5.20;;
28844;SDS011;15976;47.938;7.758;2023-05-24T07:28:43;15.18;;;6.20;;
28844;SDS011;15976;47.938;7.758;2023-05-24T07:31:11;14.98;;;5.43;;
28844;SDS011;15976;47.938;7.758;2023-05-24T07:33:38;17.98;;;5.97;;
28844;SDS011;15976;47.938;7.758;2023-05-24T07:36:06;13.65;;;5.55;;
28844;SDS011;15976;47.938;7.758;2023-05-24T07:38:34;18.17;;;5.32;;
28844;SDS011;15976;47.938;7.758;2023-05-24T07:41:02;15.82;;;5.85;;
28844;SDS011;15976;47.938;7.758;2023-05-24T07:43:30;10.18;;;5.22;;
28844;SDS011;15976;47.938;7.758;2023-05-24T07:45:57;13.38;;;5.45;;
28844;SDS011;15976;47.938;7.758;2023-05-24T07:48:24;14.27;;;5.00;;
28844;SDS011;15976;47.938;7.758;2023-05-24T07:50:51;11.85;;;5.38;;
28844;SDS011;15976;47.938;7.758;2023-05-24T07:53:18;14.27;;;5.13;;
28844;SDS011;15976;47.938;7.758;2023-05-24T07:55:45;14.80;;;5.32;;
28844;SDS011;15976;47.938;7.758;2023-05-24T07:58:12;16.17;;;5.60;;
28844;SDS011;15976;47.938;7.758;2023-05-24T08:00:39;14.63;;;5.55;;
28844;SDS011;15976;47.938;7.758;2023-05-24T08:03:07;9.52;;;4.57;;
28844;SDS011;15976;47.938;7.758;2023-05-24T08:05:34;13.73;;;4.97;;
28844;SDS011;15976;47.938;7.758;2023-05-24T08:08:01;11.95;;;5.65;;
28844;SDS011;15976;47.938;7.758;2023-05-24T08:10:31;14.43;;;5.28;;
28844;SDS011;15976;47.938;7.758;2023-05-24T08:12:58;10.88;;;5.75;;
28844;SDS011;15976;47.938;7.758;2023-05-24T08:15:25;14.88;;;6.03;;
28844;SDS011;15976;47.938;7.758;2023-05-24T08:17:52;13.90;;;5.47;;
28844;SDS011;15976;47.938;7.758;2023-05-24T08:20:19;14.50;;;5.18;;
28844;SDS011;15976;47.938;7.758;2023-05-24T08:22:46;16.33;;;5.68;;
28844;SDS011;15976;47.938;7.758;2023-05-24T08:25:14;17.20;;;5.72;;
28844;SDS011;15976;47.938;7.758;2023-05-24T08:27:41;17.63;;;5.20;;
28844;SDS011;15976;47.938;7.758;2023-05-24T08:30:08;13.88;;;5.50;;
28844;SDS011;15976;47.938;7.758;2023-05-24T08:32:36;15.32;;;5.15;;
28844;SDS011;15976;47.938;7.758;2023-05-24T08:35:04;15.45;;;5.47;;
28844;SDS011;15976;47.938;7.758;2023-05-24T08:37:45;11.70;;;5.40;;
28844;SDS011;15976;47.938;7.758;2023-05-24T08:40:13;14.10;;;5.05;;
28844;SDS011;15976;47.938;7.758;2023-05-24T08:42:40;20.55;;;5.95;;
28844;SDS011;15976;47.938;7.758;2023-05-24T08:45:09;15.88;;;5.22;;
28844;SDS011;15976;47.938;7.758;2023-05-24T08:47:38;13.07;;;5.00;;
28844;SDS011;15976;47.938;7.758;2023-05-24T08:50:06;14.90;;;5.47;;
28844;SDS011;15976;47.938;7.758;2023-05-24T08:52:34;11.95;;;5.15;;
28844;SDS011;15976;47.938;7.758;2023-05-24T08:55:05;19.15;;;5.55;;
28844;SDS011;15976;47.938;7.758;2023-05-24T08:57:32;19.25;;;6.30;;
28844;SDS011;15976;47.938;7.758;2023-05-24T09:00:05;12.60;;;5.50;;
28844;SDS011;15976;47.938;7.758;2023-05-24T09:02:39;16.58;;;5.53;;
28844;SDS011;15976;47.938;7.758;2023-05-24T09:05:11;14.80;;;5.50;;
28844;SDS011;15976;47.938;7.758;2023-05-24T09:07:43;14.48;;;5.22;;
28844;SDS011;15976;47.938;7.758;2023-05-24T09:10:10;15.40;;;5.43;;
28844;SDS011;15976;47.938;7.758;2023-05-24T09:12:38;12.02;;;5.20;;
28844;SDS011;15976;47.938;7.758;2023-05-24T09:15:06;13.40;;;5.25;;
28844;SDS011;15976;47.938;7.758;2023-05-24T09:17:34;17.05;;;6.22;;
28844;SDS011;15976;47.938;7.758;2023-05-24T09:20:03;16.77;;;5.50;;
28844;SDS011;15976;47.938;7.758;2023-05-24T09:22:39;14.18;;;5.25;;
28844;SDS011;15976;47.938;7.758;2023-05-24T09:25:08;16.63;;;5.38;;
28844;SDS011;15976;47.938;7.758;2023-05-24T09:27:37;14.20;;;5.40;;
28844;SDS011;15976;47.938;7.758;2023-05-24T09:30:08;15.25;;;5.75;;
28844;SDS011;15976;47.938;7.758;2023-05-24T09:32:36;14.77;;;5.30;;
28844;SDS011;15976;47.938;7.758;2023-05-24T09:35:06;12.75;;;5.35;;
28844;SDS011;15976;47.938;7.758;2023-05-24T09:37:35;11.88;;;5.43;;
28844;SDS011;15976;47.938;7.758;2023-05-24T09:40:04;14.23;;;5.47;;
28844;SDS011;15976;47.938;7.758;2023-05-24T09:42:36;17.35;;;5.53;;
28844;SDS011;15976;47.938;7.758;2023-05-24T09:45:06;16.75;;;6.47;;
28844;SDS011;15976;47.938;7.758;2023-05-24T09:47:41;13.35;;;5.80;;
28844;SDS011;15976;47.938;7.758;2023-05-24T09:50:15;15.15;;;5.22;;
28844;SDS011;15976;47.938;7.758;2023-05-24T09:52:47;14.60;;;5.78;;
28844;SDS011;15976;47.938;7.758;2023-05-24T09:55:18;13.05;;;6.63;;
28844;SDS011;15976;47.938;7.758;2023-05-24T10:01:05;15.38;;;6.07;;
28844;SDS011;15976;47.938;7.758;2023-05-24T10:04:06;17.15;;;6.00;;
28844;SDS011;15976;47.938;7.758;2023-05-24T10:06:46;15.68;;;6.00;;
28844;SDS011;15976;47.938;7.758;2023-05-24T10:09:21;12.45;;;4.85;;
28844;SDS011;15976;47.938;7.758;2023-05-24T10:12:16;15.65;;;5.22;;
28844;SDS011;15976;47.938;7.758;2023-05-24T10:14:50;14.20;;;5.65;;
28844;SDS011;15976;47.938;7.758;2023-05-24T10:17:35;12.55;;;4.85;;
28844;SDS011;15976;47.938;7.758;2023-05-24T10:20:07;12.90;;;5.68;;
28844;SDS011;15976;47.938;7.758;2023-05-24T10:22:46;12.50;;;5.78;;
28844;SDS011;15976;47.938;7.758;2023-05-24T10:25:49;12.50;;;6.00;;
28844;SDS011;15976;47.938;7.758;2023-05-24T10:28:39;13.00;;;5.88;;
28844;SDS011;15976;47.938;7.758;2023-05-24T10:31:23;12.27;;;5.55;;
28844;SDS011;15976;47.938;7.758;2023-05-24T10:34:05;13.55;;;5.80;;
28844;SDS011;15976;47.938;7.758;2023-05-24T10:37:04;15.48;;;6.45;;
28844;SDS011;15976;47.938;7.758;2023-05-24T10:39:43;15.68;;;6.22;;
28844;SDS011;15976;47.938;7.758;2023-05-24T10:42:20;13.73;;;5.68;;
28844;SDS011;15976;47.938;7.758;2023-05-24T10:50:51;14.95;;;5.60;;
28844;SDS011;15976;47.938;7.758;2023-05-24T10:53:48;15.55;;;5.78;;
28844;SDS011;15976;47.938;7.758;2023-05-24T10:56:21;13.88;;;5.57;;
28844;SDS011;15976;47.938;7.758;2023-05-24T10:59:12;13.50;;;5.85;;
28844;SDS011;15976;47.938;7.758;2023-05-24T11:02:17;15.70;;;5.68;;
28844;SDS011;15976;47.938;7.758;2023-05-24T11:05:04;23.00;;;6.63;;
28844;SDS011;15976;47.938;7.758;2023-05-24T11:07:49;15.10;;;5.65;;
28844;SDS011;15976;47.938;7.758;2023-05-24T11:10:38;14.73;;;5.82;;
28844;SDS011;15976;47.938;7.758;2023-05-24T11:13:14;12.60;;;5.28;;
28844;SDS011;15976;47.938;7.758;2023-05-24T11:15:51;15.23;;;5.90;;
28844;SDS011;15976;47.938;7.758;2023-05-24T11:18:48;14.63;;;5.63;;
28844;SDS011;15976;47.938;7.758;2023-05-24T11:21:28;11.90;;;5.38;;
28844;SDS011;15976;47.938;7.758;2023-05-24T11:24:00;14.90;;;5.53;;
28844;SDS011;15976;47.938;7.758;2023-05-24T11:26:38;14.57;;;5.47;;
28844;SDS011;15976;47.938;7.758;2023-05-24T11:29:19;14.48;;;5.30;;
28844;SDS011;15976;47.938;7.758;2023-05-24T11:31:57;14.43;;;5.32;;
28844;SDS011;15976;47.938;7.758;2023-05-24T11:34:40;18.02;;;5.95;;
28844;SDS011;15976;47.938;7.758;2023-05-24T11:37:14;15.90;;;5.82;;
28844;SDS011;15976;47.938;7.758;2023-05-24T11:40:01;11.10;;;5.25;;
28844;SDS011;15976;47.938;7.758;2023-05-24T11:42:47;12.65;;;5.63;;
28844;SDS011;15976;47.938;7.758;2023-05-24T11:45:19;13.70;;;5.68;;
28844;SDS011;15976;47.938;7.758;2023-05-24T11:48:18;13.15;;;5.40;;
28844;SDS011;15976;47.938;7.758;2023-05-24T11:51:07;12.07;;;5.38;;
28844;SDS011;15976;47.938;7.758;2023-05-24T11:53:46;11.55;;;5.70;;
28844;SDS011;15976;47.938;7.758;2023-05-24T11:56:29;11.90;;;4.97;;
28844;SDS011;15976;47.938;7.758;2023-05-24T11:59:15;12.10;;;5.40;;
28844;SDS011;15976;47.938;7.758;2023-05-24T12:01:58;12.30;;;5.32;;
28844;SDS011;15976;47.938;7.758;2023-05-24T12:04:30;14.55;;;7.00;;
28844;SDS011;15976;47.938;7.758;2023-05-24T12:06:58;14.55;;;5.68;;
28844;SDS011;15976;47.938;7.758;2023-05-24T12:09:26;11.75;;;5.60;;
28844;SDS011;15976;47.938;7.758;2023-05-24T12:11:54;11.77;;;5.30;;
28844;SDS011;15976;47.938;7.758;2023-05-24T12:14:27;16.77;;;5.88;;
28844;SDS011;15976;47.938;7.758;2023-05-24T12:16:56;14.18;;;5.53;;
28844;SDS011;15976;47.938;7.758;2023-05-24T12:19:24;15.32;;;5.38;;
28844;SDS011;15976;47.938;7.758;2023-05-24T12:21:59;14.40;;;5.65;;
28844;SDS011;15976;47.938;7.758;2023-05-24T12:24:30;16.63;;;6.30;;
28844;SDS011;15976;47.938;7.758;2023-05-24T12:26:58;11.23;;;5.65;;
28844;SDS011;15976;47.938;7.758;2023-05-24T12:29:36;12.65;;;5.88;;
28844;SDS011;15976;47.938;7.758;2023-05-24T12:32:06;11.20;;;5.15;;
28844;SDS011;15976;47.938;7.758;2023-05-24T12:34:40;12.23;;;5.35;;
28844;SDS011;15976;47.938;7.758;2023-05-24T12:37:08;15.30;;;5.68;;
28844;SDS011;15976;47.938;7.758;2023-05-24T12:39:36;13.35;;;5.57;;
28844;SDS011;15976;47.938;7.758;2023-05-24T12:42:04;13.93;;;5.30;;
28844;SDS011;15976;47.938;7.758;2023-05-24T12:44:34;15.38;;;6.25;;
28844;SDS011;15976;47.938;7.758;2023-05-24T12:47:03;14.45;;;5.72;;
28844;SDS011;15976;47.938;7.758;2023-05-24T12:49:32;16.65;;;6.13;;
28844;SDS011;15976;47.938;7.758;2023-05-24T12:51:59;11.07;;;5.60;;
28844;SDS011;15976;47.938;7.758;2023-05-24T12:54:29;18.10;;;6.00;;
28844;SDS011;15976;47.938;7.758;2023-05-24T12:56:56;16.60;;;5.93;;
28844;SDS011;15976;47.938;7.758;2023-05-24T12:59:28;12.43;;;5.65;;
28844;SDS011;15976;47.938;7.758;2023-05-24T13:01:55;16.95;;;5.75;;
28844;SDS011;15976;47.938;7.758;2023-05-24T13:04:23;15.00;;;5.85;;
28844;SDS011;15976;47.938;7.758;2023-05-24T13:06:53;11.82;;;5.45;;
28844;SDS011;15976;47.938;7.758;2023-05-24T13:09:20;12.95;;;6.05;;
28844;SDS011;15976;47.938;7.758;2023-05-24T13:11:49;12.00;;;5.85;;
28844;SDS011;15976;47.938;7.758;2023-05-24T13:14:17;13.75;;;5.82;;
28844;SDS011;15976;47.938;7.758;2023-05-24T13:16:45;14.10;;;6.28;;
28844;SDS011;15976;47.938;7.758;2023-05-24T13:19:13;15.13;;;6.20;;
28844;SDS011;15976;47.938;7.758;2023-05-24T13:21:40;15.38;;;6.03;;
28844;SDS011;15976;47.938;7.758;2023-05-24T13:24:08;13.90;;;5.65;;
28844;SDS011;15976;47.938;7.758;2023-05-24T13:26:35;12.15;;;5.18;;
28844;SDS011;15976;47.938;7.758;2023-05-24T13:29:03;13.80;;;5.32;;
28844;SDS011;15976;47.938;7.758;2023-05-24T13:31:34;13.40;;;5.72;;
28844;SDS011;15976;47.938;7.758;2023-05-24T13:34:03;14.77;;;5.63;;
28844;SDS011;15976;47.938;7.758;2023-05-24T13:36:31;15.48;;;6.05;;
28844;SDS011;15976;47.938;7.758;2023-05-24T13:38:58;12.82;;;5.20;;
28844;SDS011;15976;47.938;7.758;2023-05-24T13:41:28;12.82;;;5.45;;
28844;SDS011;15976;47.938;7.758;2023-05-24T13:43:56;15.52;;;5.43;;
28844;SDS011;15976;47.938;7.758;2023-05-24T13:46:23;13.75;;;5.80;;
28844;SDS011;15976;47.938;7.758;2023-05-24T13:48:50;12.80;;;5.47;;
28844;SDS011;15976;47.938;7.758;2023-05-24T13:51:17;12.80;;;5.50;;
28844;SDS011;15976;47.938;7.758;2023-05-24T13:53:45;14.65;;;5.88;;
28844;SDS011;15976;47.938;7.758;2023-05-24T13:56:13;14.05;;;5.72;;
28844;SDS011;15976;47.938;7.758;2023-05-24T13:58:41;13.00;;;5.70;;
28844;SDS011;15976;47.938;7.758;2023-05-24T14:01:08;12.35;;;5.35;;
28844;SDS011;15976;47.938;7.758;2023-05-24T14:03:36;12.90;;;5.05;;
28844;SDS011;15976;47.938;7.758;2023-05-24T14:06:06;13.95;;;5.72;;
28844;SDS011;15976;47.938;7.758;2023-05-24T14:08:33;11.88;;;5.03;;
28844;SDS011;15976;47.938;7.758;2023-05-24T14:11:01;15.77;;;5.28;;
28844;SDS011;15976;47.938;7.758;2023-05-24T14:13:28;13.48;;;5.45;;
28844;SDS011;15976;47.938;7.758;2023-05-24T14:15:57;11.45;;;5.30;;
28844;SDS011;15976;47.938;7.758;2023-05-24T14:18:25;13.25;;;5.00;;
28844;SDS011;15976;47.938;7.758;2023-05-24T14:20:52;11.20;;;4.80;;
28844;SDS011;15976;47.938;7.758;2023-05-24T14:23:19;15.18;;;4.90;;
28844;SDS011;15976;47.938;7.758;2023-05-24T14:25:46;13.10;;;4.65;;
28844;SDS011;15976;47.938;7.758;2023-05-24T14:28:13;14.05;;;4.82;;
28844;SDS011;15976;47.938;7.758;2023-05-24T14:30:40;13.20;;;5.07;;
28844;SDS011;15976;47.938;7.758;2023-05-24T14:33:07;12.95;;;5.03;;
28844;SDS011;15976;47.938;7.758;2023-05-24T14:35:36;12.15;;;5.30;;
28844;SDS011;15976;47.938;7.758;2023-05-24T14:38:05;10.98;;;4.93;;
28844;SDS011;15976;47.938;7.758;2023-05-24T14:40:34;16.33;;;5.05;;
28844;SDS011;15976;47.938;7.758;2023-05-24T14:43:03;11.88;;;5.15;;
28844;SDS011;15976;47.938;7.758;2023-05-24T14:45:30;10.75;;;4.80;;
28844;SDS011;15976;47.938;7.758;2023-05-24T14:47:58;15.15;;;4.40;;
28844;SDS011;15976;47.938;7.758;2023-05-24T14:50:26;13.27;;;4.90;;
28844;SDS011;15976;47.938;7.758;2023-05-24T14:52:53;7.68;;;3.90;;
28844;SDS011;15976;47.938;7.758;2023-05-24T14:55:21;10.80;;;4.00;;
28844;SDS011;15976;47.938;7.758;2023-05-24T14:57:48;10.48;;;4.30;;
28844;SDS011;15976;47.938;7.758;2023-05-24T15:00:15;14.15;;;4.13;;
28844;SDS011;15976;47.938;7.758;2023-05-24T15:02:47;12.32;;;4.47;;
28844;SDS011;15976;47.938;7.758;2023-05-24T15:05:14;12.15;;;4.20;;
28844;SDS011;15976;47.938;7.758;2023-05-24T15:07:42;9.20;;;4.55;;
28844;SDS011;15976;47.938;7.758;2023-05-24T15:10:09;6.25;;;3.60;;
28844;SDS011;15976;47.938;7.758;2023-05-24T15:12:36;8.43;;;3.50;;
28844;SDS011;15976;47.938;7.758;2023-05-24T15:15:03;11.57;;;3.70;;
28844;SDS011;15976;47.938;7.758;2023-05-24T15:17:32;12.27;;;3.92;;